Time;durP1;ratioP1;P1;durP2;ratioP2;P2;SDS_P1;SDS_P2;PMS_P1;PMS_P2;Temp;Humidity;BMP_temperature;BMP_pressure;BME280_temperature;BME280_humidity;BME280_pressure;Samples;Min_cycle;Max_cycle;Signal;HPM_P1;HPM_P2
2022/04/03 00:00:10;;;;;;;5.07;2.07;;;2.30;99.90;;;;;;5092281;27;20412;-44
2022/04/03 00:02:37;;;;;;;2.57;1.90;;;2.30;99.90;;;;;;5091324;27;20240;-44
2022/04/03 00:05:04;;;;;;;3.23;1.90;;;2.20;99.90;;;;;;5092060;27;20300;-44
2022/04/03 00:07:31;;;;;;;2.50;1.80;;;2.10;99.90;;;;;;5079616;27;20212;-43
2022/04/03 00:10:00;;;;;;;1.73;1.63;;;2.10;99.90;;;;;;5095680;28;20205;-45
2022/04/03 00:12:27;;;;;;;3.90;2.20;;;2.00;99.90;;;;;;5075030;27;20404;-44
2022/04/03 00:14:54;;;;;;;4.03;2.00;;;2.00;99.90;;;;;;5095697;27;20227;-42
2022/04/03 00:17:21;;;;;;;2.63;2.13;;;1.90;99.90;;;;;;5074980;28;20217;-44
2022/04/03 00:19:48;;;;;;;3.83;2.17;;;1.90;99.90;;;;;;5085342;27;20303;-43
2022/04/03 00:22:15;;;;;;;3.40;2.67;;;1.80;99.90;;;;;;5066891;27;20265;-44
2022/04/03 00:24:43;;;;;;;2.97;2.40;;;1.80;99.90;;;;;;5097276;28;20278;-44
2022/04/03 00:27:11;;;;;;;5.17;2.17;;;1.70;99.90;;;;;;5076575;27;20238;-45
2022/04/03 00:29:38;;;;;;;5.23;2.37;;;1.70;99.90;;;;;;5083971;27;20211;-47
2022/04/03 00:32:06;;;;;;;3.83;2.33;;;1.60;99.90;;;;;;5084986;28;20288;-44
2022/04/03 00:34:33;;;;;;;5.13;2.40;;;1.60;99.90;;;;;;5087036;28;21178;-46
2022/04/03 00:37:00;;;;;;;6.37;2.80;;;1.60;99.90;;;;;;5097118;28;20271;-44
2022/04/03 00:39:27;;;;;;;3.03;2.23;;;1.60;99.90;;;;;;5075977;27;20751;-44
2022/04/03 00:41:55;;;;;;;4.53;2.33;;;1.60;99.90;;;;;;5087137;27;20207;-44
2022/04/03 00:44:24;;;;;;;3.13;2.33;;;1.60;99.90;;;;;;5079088;27;20770;-44
2022/04/03 00:46:52;;;;;;;2.87;2.47;;;1.70;99.90;;;;;;5094418;28;20228;-44
2022/04/03 00:49:19;;;;;;;11.33;2.40;;;1.70;99.90;;;;;;5070993;28;20205;-43
2022/04/03 00:51:46;;;;;;;4.30;2.30;;;1.70;99.90;;;;;;5099438;27;20239;-44
2022/04/03 00:54:12;;;;;;;3.30;2.60;;;1.70;99.90;;;;;;5073865;28;20431;-43
2022/04/03 02:39:41;;;;;;;4.90;2.23;;;0.70;99.90;;;;;;5085521;28;20184;-48
2022/04/03 02:42:08;;;;;;;3.50;2.50;;;0.60;99.90;;;;;;5086749;28;20211;-45
2022/04/03 02:44:35;;;;;;;2.93;2.10;;;0.60;99.90;;;;;;5099062;27;20509;-48
2022/04/03 02:47:02;;;;;;;5.37;2.53;;;0.70;99.90;;;;;;5078156;28;20220;-45
2022/04/03 02:49:29;;;;;;;2.77;1.80;;;0.70;99.90;;;;;;5079131;28;20198;-50
2022/04/03 02:51:56;;;;;;;3.97;2.43;;;0.70;99.90;;;;;;5081717;28;20210;-46
2022/04/03 02:54:23;;;;;;;2.73;2.13;;;0.70;99.90;;;;;;5097330;28;20388;-43
2022/04/03 02:56:51;;;;;;;3.37;2.23;;;0.70;99.90;;;;;;5072835;28;20197;-47
2022/04/03 02:59:18;;;;;;;3.53;2.20;;;0.70;99.90;;;;;;5099900;28;20233;-44
2022/04/03 03:01:46;;;;;;;10.20;2.30;;;0.80;99.90;;;;;;5074817;28;20225;-43
2022/04/03 03:04:14;;;;;;;2.47;2.20;;;0.70;99.90;;;;;;5082143;28;20343;-43
2022/04/03 03:06:41;;;;;;;3.03;2.17;;;0.70;99.90;;;;;;5072528;28;20221;-48
2022/04/03 03:09:08;;;;;;;3.33;1.90;;;0.70;99.90;;;;;;5092334;28;20203;-43
2022/04/03 03:11:34;;;;;;;3.90;1.97;;;0.70;99.90;;;;;;5093208;28;20468;-45
2022/04/03 03:14:03;;;;;;;4.00;2.30;;;0.70;99.90;;;;;;5084650;28;20304;-44
2022/04/03 03:16:29;;;;;;;3.10;1.87;;;0.70;99.90;;;;;;5090009;28;20200;-45
2022/04/03 03:18:56;;;;;;;3.70;2.07;;;0.70;99.90;;;;;;5091193;28;20275;-44
2022/04/03 03:21:23;;;;;;;2.77;1.83;;;0.70;99.90;;;;;;5074456;28;20544;-44
2022/04/03 03:23:50;;;;;;;3.60;2.43;;;0.70;99.90;;;;;;5075927;28;20272;-44
2022/04/03 03:26:17;;;;;;;3.97;2.20;;;0.70;99.90;;;;;;5095804;28;20315;-44
2022/04/03 03:28:44;;;;;;;2.40;2.20;;;0.70;99.90;;;;;;5069654;28;20203;-44
2022/04/03 03:31:12;;;;;;;3.83;2.07;;;0.60;99.90;;;;;;5085689;28;20482;-42
2022/04/03 03:33:39;;;;;;;4.27;2.30;;;0.60;99.90;;;;;;5085553;28;20307;-43
2022/04/03 03:36:09;;;;;;;4.57;2.23;;;0.60;99.90;;;;;;5077961;28;20334;-43
2022/04/03 03:38:36;;;;;;;6.63;2.00;;;0.60;99.90;;;;;;5083706;27;20248;-44
2022/04/03 03:41:04;;;;;;;3.23;2.10;;;0.60;99.90;;;;;;5094212;28;20208;-43
2022/04/03 03:43:31;;;;;;;7.20;2.30;;;0.50;99.90;;;;;;5091211;27;20404;-43
2022/04/03 03:45:58;;;;;;;7.50;2.00;;;0.60;99.90;;;;;;5087751;27;20460;-43
2022/04/03 03:48:26;;;;;;;5.47;2.07;;;0.50;99.90;;;;;;5096254;27;20279;-48
2022/04/03 03:50:53;;;;;;;2.67;2.00;;;0.50;99.90;;;;;;5085183;27;20205;-44
2022/04/03 03:53:21;;;;;;;3.33;2.20;;;0.60;99.90;;;;;;5095944;27;20296;-44
2022/04/03 03:55:49;;;;;;;2.37;1.90;;;0.50;99.90;;;;;;5066842;27;20551;-43
2022/04/03 03:58:16;;;;;;;2.57;1.83;;;0.60;99.90;;;;;;5105298;28;20213;-44
2022/04/03 04:00:43;;;;;;;2.33;1.70;;;0.60;99.90;;;;;;5077301;27;20209;-45
2022/04/03 04:03:10;;;;;;;2.97;2.10;;;0.60;99.90;;;;;;5099131;27;20204;-43
2022/04/03 04:05:38;;;;;;;5.30;1.80;;;0.60;99.90;;;;;;5092195;27;20290;-44
2022/04/03 04:08:05;;;;;;;4.43;2.50;;;0.60;99.90;;;;;;5090112;27;20229;-43
2022/04/03 04:10:32;;;;;;;4.13;2.03;;;0.70;99.90;;;;;;5079624;27;20212;-44
2022/04/03 04:12:59;;;;;;;3.87;1.80;;;0.70;99.90;;;;;;5095156;27;20273;-43
2022/04/03 04:15:27;;;;;;;4.33;1.90;;;0.70;99.90;;;;;;5088577;27;20281;-46
2022/04/03 04:17:55;;;;;;;2.67;1.90;;;0.60;99.90;;;;;;5085178;28;20472;-44
2022/04/03 04:20:23;;;;;;;4.10;2.00;;;0.70;99.90;;;;;;5094017;28;20673;-43
2022/04/03 04:22:52;;;;;;;1.70;1.60;;;0.70;99.90;;;;;;5085349;28;20200;-43
2022/04/03 04:25:20;;;;;;;3.13;2.10;;;0.60;99.90;;;;;;5077900;27;20258;-43
2022/04/03 04:27:47;;;;;;;3.43;2.20;;;0.60;99.90;;;;;;5092169;28;20228;-48
2022/04/03 04:30:15;;;;;;;2.40;1.63;;;0.60;99.90;;;;;;5081492;28;20600;-46
2022/04/03 04:32:43;;;;;;;2.20;2.00;;;0.70;99.90;;;;;;5092938;28;20542;-48
2022/04/03 04:35:10;;;;;;;2.97;1.90;;;0.70;99.90;;;;;;5088619;27;20227;-45
2022/04/03 04:37:38;;;;;;;1.70;1.60;;;0.60;99.90;;;;;;5086564;27;20204;-48
2022/04/03 04:40:07;;;;;;;2.63;1.60;;;0.70;99.90;;;;;;5076676;27;20295;-45
2022/04/03 04:42:34;;;;;;;4.53;1.97;;;0.70;99.90;;;;;;5093990;28;20202;-44
2022/04/03 04:45:01;;;;;;;2.50;1.90;;;0.70;99.90;;;;;;5092375;27;20255;-43
2022/04/03 04:47:28;;;;;;;4.73;2.10;;;0.60;99.90;;;;;;5083042;28;22084;-43
2022/04/03 04:49:55;;;;;;;3.63;1.80;;;0.70;99.90;;;;;;5083441;28;20231;-44
2022/04/03 04:52:22;;;;;;;2.50;1.70;;;0.70;99.90;;;;;;5095961;28;20202;-43
2022/04/03 04:54:49;;;;;;;2.57;1.83;;;0.70;99.90;;;;;;5083987;27;20233;-44
2022/04/03 04:57:17;;;;;;;4.40;1.70;;;0.70;99.90;;;;;;5085163;28;20223;-43
2022/04/03 04:59:44;;;;;;;2.83;1.70;;;0.70;99.90;;;;;;5094238;27;20270;-44
2022/04/03 05:02:11;;;;;;;9.67;1.90;;;0.70;99.90;;;;;;5081878;28;20238;-44
2022/04/03 05:04:38;;;;;;;2.53;1.87;;;0.70;99.90;;;;;;5091926;28;20237;-42
2022/04/03 05:07:05;;;;;;;3.67;1.80;;;0.70;99.90;;;;;;5085854;27;20224;-44
2022/04/03 05:09:33;;;;;;;1.97;1.73;;;0.80;99.90;;;;;;5087524;27;20210;-44
2022/04/03 05:12:00;;;;;;;2.13;1.47;;;0.80;99.90;;;;;;5078753;28;20331;-43
2022/04/03 05:14:28;;;;;;;2.87;1.57;;;0.70;99.90;;;;;;5094543;28;20213;-43
2022/04/03 05:16:55;;;;;;;2.77;1.87;;;0.80;99.90;;;;;;5090891;27;20281;-43
2022/04/03 05:19:24;;;;;;;1.87;1.73;;;0.80;99.90;;;;;;5083341;27;21044;-44
2022/04/03 05:21:51;;;;;;;2.00;1.47;;;0.80;99.90;;;;;;5083142;27;20223;-44
2022/04/03 05:24:18;;;;;;;1.60;1.50;;;0.90;99.90;;;;;;5083048;27;20219;-45
2022/04/03 05:26:45;;;;;;;1.97;1.67;;;0.90;99.90;;;;;;5095378;27;20224;-44
2022/04/03 05:29:12;;;;;;;2.80;1.63;;;1.00;99.90;;;;;;5075250;27;20309;-45
2022/04/03 05:31:40;;;;;;;3.87;2.10;;;1.10;99.90;;;;;;5093684;28;20327;-44
2022/04/03 05:34:08;;;;;;;4.13;1.70;;;1.10;99.90;;;;;;5082661;28;20322;-45
2022/04/03 05:36:35;;;;;;;1.83;1.60;;;1.20;99.90;;;;;;5082326;28;20215;-44
2022/04/03 05:39:04;;;;;;;2.63;1.80;;;1.30;99.90;;;;;;5089191;28;20336;-45
2022/04/03 05:41:31;;;;;;;3.03;1.70;;;1.30;99.90;;;;;;5090773;28;20511;-44
2022/04/03 05:43:58;;;;;;;4.17;1.73;;;1.30;99.90;;;;;;5078889;28;20563;-44
2022/04/03 05:46:25;;;;;;;2.30;1.83;;;1.30;99.90;;;;;;5092858;28;20197;-44
2022/04/03 05:48:53;;;;;;;2.60;1.70;;;1.40;99.90;;;;;;5082564;27;20289;-44
2022/04/03 05:51:20;;;;;;;2.53;2.03;;;1.40;99.90;;;;;;5095720;27;20220;-44
2022/04/03 05:53:47;;;;;;;4.80;2.00;;;1.40;99.90;;;;;;5084295;27;20215;-44
2022/04/03 05:56:14;;;;;;;2.53;1.87;;;1.40;99.90;;;;;;5086644;28;20216;-44
2022/04/03 05:58:40;;;;;;;3.87;1.83;;;1.50;99.90;;;;;;5080873;27;20551;-45
2022/04/03 06:01:07;;;;;;;2.47;1.70;;;1.50;99.90;;;;;;5078586;28;20478;-45
2022/04/03 06:03:34;;;;;;;3.07;1.67;;;1.50;99.90;;;;;;5077463;28;20562;-45
2022/04/03 06:06:02;;;;;;;1.80;1.60;;;1.50;99.90;;;;;;5079358;27;20210;-46
2022/04/03 06:08:29;;;;;;;6.60;1.90;;;1.60;99.90;;;;;;5083079;27;20661;-45
2022/04/03 06:10:56;;;;;;;2.43;1.67;;;1.60;99.90;;;;;;5062148;27;20767;-46
2022/04/03 06:13:25;;;;;;;6.53;2.00;;;1.70;99.90;;;;;;5068481;27;20236;-45
2022/04/03 06:15:52;;;;;;;5.13;2.00;;;1.70;99.90;;;;;;5097335;27;20230;-47
2022/04/03 06:18:19;;;;;;;5.13;1.70;;;1.70;99.90;;;;;;5078236;27;20313;-44
2022/04/03 06:20:47;;;;;;;7.33;2.00;;;1.70;99.90;;;;;;5076909;27;20237;-48
2022/04/03 06:23:17;;;;;;;4.47;1.73;;;1.70;99.90;;;;;;5080333;27;20207;-46
2022/04/03 06:25:44;;;;;;;3.63;1.70;;;1.70;99.90;;;;;;5084866;27;20322;-47
2022/04/03 06:28:12;;;;;;;2.50;1.90;;;1.70;99.90;;;;;;5067442;27;20338;-43
2022/04/03 06:30:39;;;;;;;3.47;1.63;;;1.80;99.90;;;;;;5084167;27;20214;-43
2022/04/03 06:33:07;;;;;;;3.23;1.90;;;1.70;99.90;;;;;;5079288;28;20496;-44
2022/04/03 06:35:34;;;;;;;3.23;1.97;;;1.70;99.90;;;;;;5081471;28;20214;-43
2022/04/03 06:38:01;;;;;;;4.87;1.83;;;1.80;99.90;;;;;;5059890;27;20516;-43
2022/04/03 06:40:29;;;;;;;4.80;1.60;;;1.90;99.90;;;;;;5093408;27;20357;-44
2022/04/03 06:42:56;;;;;;;1.70;1.60;;;1.90;99.90;;;;;;5072217;27;20208;-44
2022/04/03 06:45:24;;;;;;;2.27;1.60;;;2.00;99.90;;;;;;5079586;28;20214;-43
2022/04/03 06:47:51;;;;;;;3.17;1.80;;;2.00;99.90;;;;;;5089821;28;20226;-43
2022/04/03 06:50:19;;;;;;;3.20;1.70;;;2.10;99.90;;;;;;5082052;28;20474;-44
2022/04/03 06:52:47;;;;;;;3.13;1.93;;;2.20;99.90;;;;;;5072324;28;20277;-44
2022/04/03 06:55:14;;;;;;;1.80;1.43;;;2.30;99.90;;;;;;5072371;28;20221;-44
2022/04/03 06:57:42;;;;;;;2.70;1.50;;;2.40;99.90;;;;;;5086358;28;20749;-43
2022/04/03 07:00:11;;;;;;;2.37;1.53;;;2.50;99.90;;;;;;5057086;28;20212;-44
2022/04/03 07:02:38;;;;;;;1.67;1.30;;;2.60;99.90;;;;;;5084770;28;20579;-43
2022/04/03 07:05:05;;;;;;;3.20;1.70;;;2.60;99.90;;;;;;5073019;28;20223;-43
2022/04/03 07:07:32;;;;;;;2.00;1.50;;;2.60;99.90;;;;;;5082435;28;20407;-42
2022/04/03 07:09:59;;;;;;;3.00;1.30;;;2.50;99.90;;;;;;5069464;27;20302;-42
2022/04/03 07:12:26;;;;;;;1.27;1.17;;;2.30;99.90;;;;;;5081106;27;20221;-43
2022/04/03 07:14:56;;;;;;;2.33;1.27;;;2.10;99.90;;;;;;5077547;27;20264;-44
2022/04/03 07:17:23;;;;;;;1.57;1.30;;;2.00;99.90;;;;;;5099190;27;20208;-43
2022/04/03 07:19:50;;;;;;;2.37;1.37;;;2.00;99.90;;;;;;5089290;27;20288;-47
2022/04/03 07:22:16;;;;;;;3.57;1.47;;;2.00;99.90;;;;;;5090186;27;20206;-41
2022/04/03 07:24:43;;;;;;;3.20;2.20;;;2.10;99.90;;;;;;5097914;27;20226;-47
2022/04/03 07:27:10;;;;;;;3.17;1.80;;;2.20;99.90;;;;;;5087729;27;20429;-45
2022/04/03 07:29:37;;;;;;;1.87;1.67;;;2.30;99.90;;;;;;5088340;27;20312;-48
2022/04/03 07:32:06;;;;;;;4.80;1.80;;;2.30;99.90;;;;;;5089472;27;21187;-51
2022/04/03 07:34:33;;;;;;;2.37;1.80;;;2.40;99.90;;;;;;5103307;27;20254;-42
2022/04/03 07:37:00;;;;;;;2.00;1.80;;;2.50;99.90;;;;;;5080557;27;20274;-44
2022/04/03 07:39:27;;;;;;;2.40;1.40;;;2.60;99.90;;;;;;5093312;27;20337;-45
2022/04/03 07:41:54;;;;;;;4.00;1.53;;;2.60;99.90;;;;;;5090933;27;20566;-46
2022/04/03 07:44:21;;;;;;;1.60;1.50;;;2.70;99.90;;;;;;5089434;27;20302;-44
2022/04/03 07:46:48;;;;;;;5.63;1.23;;;2.80;99.90;;;;;;5082192;27;20306;-44
2022/04/03 07:49:16;;;;;;;1.53;1.10;;;2.90;99.90;;;;;;5100095;27;20294;-44
2022/04/03 07:51:43;;;;;;;1.73;1.60;;;3.00;99.90;;;;;;5090273;27;20210;-45
2022/04/03 07:54:10;;;;;;;1.73;1.27;;;3.10;99.90;;;;;;5086092;27;20641;-44
2022/04/03 07:56:37;;;;;;;2.00;1.30;;;3.20;99.90;;;;;;5090653;27;20499;-45
2022/04/03 07:59:06;;;;;;;1.00;0.90;;;3.30;99.90;;;;;;5087632;27;20224;-45
2022/04/03 08:01:33;;;;;;;1.47;1.17;;;3.40;99.90;;;;;;5092419;27;20203;-44
2022/04/03 08:04:00;;;;;;;0.90;0.90;;;3.50;99.90;;;;;;5077009;27;20331;-44
2022/04/03 08:06:28;;;;;;;3.07;1.23;;;3.70;99.90;;;;;;5078192;28;20208;-45
2022/04/03 08:08:55;;;;;;;3.33;1.50;;;3.70;99.90;;;;;;5082446;27;20220;-44
2022/04/03 08:11:22;;;;;;;4.27;1.60;;;3.80;99.90;;;;;;5084521;27;20390;-44
2022/04/03 08:13:48;;;;;;;3.37;1.67;;;3.90;99.90;;;;;;5080903;27;20258;-45
2022/04/03 08:16:16;;;;;;;2.90;1.50;;;4.00;99.90;;;;;;5072736;27;20521;-44
2022/04/03 08:18:43;;;;;;;7.83;1.60;;;4.00;99.90;;;;;;5068871;27;20200;-44
2022/04/03 08:21:10;;;;;;;5.33;1.20;;;4.00;99.90;;;;;;5082377;27;20199;-44
2022/04/03 08:23:39;;;;;;;2.20;1.37;;;4.10;99.90;;;;;;5084212;27;20232;-44
2022/04/03 08:26:06;;;;;;;3.80;1.63;;;4.20;99.90;;;;;;5075350;27;20209;-45
2022/04/03 08:28:32;;;;;;;2.43;1.60;;;4.60;99.90;;;;;;5071604;28;20291;-44
2022/04/03 08:30:59;;;;;;;3.13;1.70;;;4.30;99.90;;;;;;5079282;27;20717;-42
2022/04/03 08:33:26;;;;;;;6.50;1.67;;;4.40;99.90;;;;;;5061224;27;20657;-42
2022/04/03 08:35:53;;;;;;;1.97;1.60;;;4.50;99.90;;;;;;5080706;27;20237;-43
2022/04/03 08:38:20;;;;;;;4.37;1.90;;;4.50;99.90;;;;;;5078138;27;20203;-43
2022/04/03 08:40:48;;;;;;;2.23;1.77;;;4.60;99.90;;;;;;5085043;27;23353;-43
2022/04/03 08:43:15;;;;;;;1.90;1.50;;;4.60;99.90;;;;;;5070667;28;20621;-43
2022/04/03 08:45:42;;;;;;;3.47;2.10;;;4.80;99.90;;;;;;5084243;27;20188;-43
2022/04/03 08:48:09;;;;;;;2.20;1.70;;;4.90;99.90;;;;;;5069049;27;20239;-42
2022/04/03 08:50:38;;;;;;;4.17;1.87;;;5.00;99.90;;;;;;5085511;27;20214;-43
2022/04/03 08:53:07;;;;;;;2.90;2.00;;;5.20;99.90;;;;;;5094383;27;20219;-43
2022/04/03 08:55:35;;;;;;;3.63;1.83;;;5.10;99.90;;;;;;5063865;28;20207;-43
2022/04/03 08:58:05;;;;;;;4.77;1.93;;;5.00;99.90;;;;;;5082433;27;20200;-43
2022/04/03 09:00:34;;;;;;;2.90;1.40;;;4.80;99.90;;;;;;5095032;27;20207;-48
2022/04/03 09:03:01;;;;;;;4.50;1.73;;;4.40;99.90;;;;;;5079965;27;20214;-44
2022/04/03 09:05:39;;;;;;;1.97;1.23;;;4.20;99.90;;;;;;5062344;27;20212;-43
2022/04/03 09:08:07;;;;;;;1.33;1.03;;;4.10;99.90;;;;;;5088015;27;20336;-43
2022/04/03 09:10:34;;;;;;;1.10;1.00;;;4.10;99.90;;;;;;5076742;27;20233;-44
2022/04/03 09:13:03;;;;;;;2.17;1.27;;;4.00;99.90;;;;;;5071526;27;20658;-43
2022/04/03 09:15:31;;;;;;;0.60;0.60;;;4.10;99.90;;;;;;5078215;27;20209;-44
2022/04/03 09:18:00;;;;;;;0.97;0.87;;;4.30;99.90;;;;;;5073732;27;20335;-43
2022/04/03 09:20:29;;;;;;;3.80;1.40;;;4.50;99.90;;;;;;5077229;27;20220;-42
2022/04/03 09:22:59;;;;;;;3.27;1.10;;;4.70;99.90;;;;;;5088779;27;20291;-44
2022/04/03 09:25:27;;;;;;;1.30;1.00;;;4.80;99.90;;;;;;5080108;28;20212;-44
2022/04/03 09:27:56;;;;;;;2.53;0.90;;;5.00;99.90;;;;;;5073675;27;20224;-44
2022/04/03 09:30:29;;;;;;;2.23;0.87;;;5.10;99.90;;;;;;5084543;27;20211;-43
2022/04/03 09:32:57;;;;;;;2.23;1.13;;;5.40;99.90;;;;;;5087676;28;20420;-42
2022/04/03 09:35:26;;;;;;;2.90;1.10;;;5.10;99.90;;;;;;5061024;27;20237;-44
2022/04/03 09:38:11;;;;;;;2.70;1.27;;;5.10;99.90;;;;;;5083978;28;20217;-43
2022/04/03 09:40:40;;;;;;;2.10;0.90;;;5.00;99.90;;;;;;5083477;27;20231;-42
2022/04/03 09:43:15;;;;;;;4.17;1.30;;;5.10;99.90;;;;;;5063579;27;20792;-43
2022/04/03 09:45:48;;;;;;;2.37;1.20;;;5.20;99.90;;;;;;5079525;27;20211;-43
2022/04/03 09:48:26;;;;;;;6.97;1.50;;;5.50;99.90;;;;;;5082157;27;20230;-42
2022/04/03 09:50:59;;;;;;;1.83;1.40;;;5.70;99.90;;;;;;5068748;27;20241;-43
2022/04/03 09:53:25;;;;;;;4.40;1.37;;;6.00;99.90;;;;;;5085800;27;20233;-44
2022/04/03 09:55:52;;;;;;;1.27;0.90;;;5.80;99.90;;;;;;5077938;27;20209;-48
2022/04/03 09:58:19;;;;;;;1.17;0.70;;;5.50;99.90;;;;;;5076334;27;20207;-47
2022/04/03 10:00:48;;;;;;;1.00;0.83;;;5.50;99.90;;;;;;5060744;27;20214;-48
2022/04/03 10:03:15;;;;;;;0.80;0.80;;;5.50;99.90;;;;;;5088891;27;20199;-44
2022/04/03 10:05:43;;;;;;;2.70;1.30;;;5.50;99.90;;;;;;5080408;27;20240;-48
2022/04/03 10:08:11;;;;;;;1.07;0.97;;;5.50;99.90;;;;;;5087465;27;20228;-42
2022/04/03 10:10:38;;;;;;;1.67;1.00;;;5.50;99.90;;;;;;5086378;27;20709;-46
2022/04/03 10:13:06;;;;;;;3.13;1.17;;;5.50;99.90;;;;;;5068900;27;20203;-43
2022/04/03 10:15:34;;;;;;;1.47;1.00;;;5.60;99.90;;;;;;5051147;27;20329;-44
2022/04/03 10:18:04;;;;;;;2.40;1.00;;;5.60;99.90;;;;;;5093035;27;20299;-44
2022/04/03 10:20:31;;;;;;;2.83;1.30;;;5.70;99.90;;;;;;5086422;28;20313;-44
2022/04/03 10:23:01;;;;;;;3.07;0.90;;;5.80;99.90;;;;;;5071845;28;20311;-44
2022/04/03 10:25:32;;;;;;;3.57;1.27;;;5.80;99.90;;;;;;5090556;27;20243;-45
2022/04/03 10:28:03;;;;;;;2.47;1.30;;;6.00;99.90;;;;;;5071809;27;20199;-44
2022/04/03 10:30:42;;;;;;;1.40;1.20;;;6.10;99.90;;;;;;5075862;28;21734;-44
2022/04/03 10:33:19;;;;;;;2.27;1.30;;;6.10;99.90;;;;;;5059980;28;20212;-45
2022/04/03 10:35:48;;;;;;;2.30;1.30;;;6.30;99.90;;;;;;5074848;28;20205;-45
2022/04/03 10:38:15;;;;;;;5.40;1.23;;;6.30;99.90;;;;;;5071449;27;20208;-44
2022/04/03 10:40:57;;;;;;;8.03;1.20;;;6.40;99.90;;;;;;5081614;27;20207;-44
2022/04/03 10:43:28;;;;;;;5.07;1.67;;;6.30;99.90;;;;;;5076261;27;20226;-44
2022/04/03 10:45:55;;;;;;;3.57;1.13;;;6.50;99.90;;;;;;5078640;28;20199;-43
2022/04/03 10:48:31;;;;;;;3.07;1.30;;;6.90;99.90;;;;;;5079160;28;20232;-47
2022/04/03 10:51:09;;;;;;;1.00;0.90;;;6.90;99.90;;;;;;5093313;28;20532;-43
2022/04/03 10:53:38;;;;;;;3.20;0.90;;;6.70;99.90;;;;;;5072668;28;20222;-45
2022/04/03 10:56:10;;;;;;;4.77;1.20;;;6.70;99.90;;;;;;5092416;28;20544;-42
2022/04/03 10:58:42;;;;;;;3.63;1.00;;;6.90;99.90;;;;;;5065473;28;20304;-44
2022/04/03 11:01:12;;;;;;;4.73;0.90;;;6.70;99.90;;;;;;5089350;28;20208;-43
2022/04/03 11:03:40;;;;;;;5.63;1.10;;;6.60;99.90;;;;;;5066952;28;20726;-44
2022/04/03 11:06:24;;;;;;;0.87;0.77;;;6.60;99.90;;;;;;5090050;28;20277;-44
2022/04/03 11:09:05;;;;;;;2.77;1.00;;;6.70;99.90;;;;;;5074535;28;20225;-44
2022/04/03 11:11:40;;;;;;;3.13;1.20;;;6.80;99.90;;;;;;5086618;28;20636;-47
2022/04/03 11:14:08;;;;;;;3.33;0.73;;;7.00;99.90;;;;;;5072295;28;20299;-44
2022/04/03 11:16:55;;;;;;;3.97;0.87;;;7.00;99.90;;;;;;5075057;28;20211;-45
2022/04/03 11:19:42;;;;;;;1.53;0.80;;;7.10;99.90;;;;;;5086855;28;20210;-43
2022/04/03 11:22:12;;;;;;;3.33;0.87;;;7.20;99.90;;;;;;5082917;28;20319;-44
2022/04/03 11:24:39;;;;;;;1.83;0.90;;;7.10;99.90;;;;;;5074640;28;20219;-44
2022/04/03 11:27:07;;;;;;;5.73;0.97;;;6.90;99.90;;;;;;5086698;28;20278;-48
2022/04/03 11:29:35;;;;;;;1.73;0.77;;;6.90;99.90;;;;;;5082975;28;20243;-48
2022/04/03 11:32:04;;;;;;;2.13;1.10;;;7.00;99.90;;;;;;5080206;28;20207;-46
2022/04/03 11:34:32;;;;;;;4.73;0.73;;;7.30;99.90;;;;;;5086413;28;20232;-46
2022/04/03 11:37:01;;;;;;;1.13;0.97;;;7.40;99.90;;;;;;5093634;28;20204;-42
2022/04/03 11:39:33;;;;;;;1.67;1.00;;;7.60;99.90;;;;;;5061828;28;20282;-45
2022/04/03 11:42:08;;;;;;;2.90;1.00;;;7.90;99.90;;;;;;5079304;28;20335;-45
2022/04/03 11:44:36;;;;;;;4.43;0.80;;;7.60;99.90;;;;;;5079677;28;20568;-42
2022/04/03 11:47:04;;;;;;;0.97;0.80;;;7.20;99.90;;;;;;5082959;28;20215;-44
2022/04/03 11:49:33;;;;;;;1.13;0.80;;;7.10;99.90;;;;;;5061965;28;20910;-44
2022/04/03 11:52:08;;;;;;;3.60;1.10;;;6.90;99.90;;;;;;5086636;28;20722;-43
2022/04/03 11:54:36;;;;;;;3.90;1.00;;;7.00;99.90;;;;;;5069970;28;20251;-46
2022/04/03 11:57:05;;;;;;;4.00;0.73;;;7.20;99.90;;;;;;5088561;28;20201;-44
2022/04/03 11:59:34;;;;;;;1.50;0.70;;;7.30;99.90;;;;;;5084042;27;20516;-44
2022/04/03 12:02:10;;;;;;;2.43;0.60;;;7.40;99.90;;;;;;5080092;27;20199;-45
2022/04/03 12:04:39;;;;;;;0.70;0.70;;;7.50;99.90;;;;;;5076588;27;20299;-45
2022/04/03 12:07:12;;;;;;;1.00;0.50;;;7.50;99.90;;;;;;5079612;27;20204;-45
2022/04/03 12:09:40;;;;;;;3.70;0.73;;;7.50;99.90;;;;;;5075482;27;20629;-45
2022/04/03 12:12:08;;;;;;;1.33;0.70;;;7.50;99.90;;;;;;5085543;27;20199;-44
2022/04/03 12:14:37;;;;;;;2.37;0.70;;;7.40;99.90;;;;;;5093593;27;20624;-44
2022/04/03 12:17:06;;;;;;;1.50;0.60;;;7.40;99.90;;;;;;5082194;27;20505;-44
2022/04/03 12:19:36;;;;;;;1.73;0.70;;;7.40;99.90;;;;;;5082242;27;20231;-44
2022/04/03 12:22:04;;;;;;;0.70;0.40;;;7.60;99.90;;;;;;5078157;27;20646;-45
2022/04/03 12:24:33;;;;;;;1.80;0.50;;;7.70;99.90;;;;;;5096407;27;20547;-44
2022/04/03 12:27:02;;;;;;;1.80;0.60;;;7.80;99.90;;;;;;5067368;27;20214;-45
2022/04/03 12:29:31;;;;;;;2.27;0.50;;;7.70;99.90;;;;;;5091826;27;20360;-44
2022/04/03 12:32:00;;;;;;;0.47;0.47;;;7.70;99.90;;;;;;5079654;27;20741;-44
2022/04/03 12:34:28;;;;;;;1.07;0.53;;;7.70;99.90;;;;;;5075033;27;20675;-44
2022/04/03 12:36:57;;;;;;;0.97;0.60;;;7.90;99.90;;;;;;5080672;27;20390;-44
2022/04/03 12:39:43;;;;;;;1.07;0.63;;;7.90;99.90;;;;;;5084727;27;20203;-44
2022/04/03 12:42:15;;;;;;;1.63;0.60;;;8.10;99.90;;;;;;5055986;27;20687;-44
2022/04/03 12:45:01;;;;;;;2.93;0.80;;;8.00;99.90;;;;;;5075117;27;20332;-45
2022/04/03 12:47:34;;;;;;;3.83;0.80;;;7.80;99.90;;;;;;5078904;27;20235;-44
2022/04/03 12:50:26;;;;;;;2.07;0.87;;;7.70;99.90;;;;;;5068639;27;20352;-45
2022/04/03 12:52:58;;;;;;;0.60;0.43;;;7.80;99.90;;;;;;5072226;27;20208;-44
2022/04/03 12:55:34;;;;;;;0.97;0.50;;;7.80;99.90;;;;;;5072441;27;20221;-44
2022/04/03 12:58:28;;;;;;;1.50;0.50;;;7.90;99.90;;;;;;5064241;27;21489;-45
2022/04/03 13:01:12;;;;;;;2.73;0.50;;;8.00;99.90;;;;;;5086348;27;20209;-44
2022/04/03 13:03:45;;;;;;;1.10;0.70;;;8.00;99.90;;;;;;5080387;28;20456;-44
2022/04/03 13:06:14;;;;;;;1.53;0.77;;;8.00;99.90;;;;;;5080865;27;20208;-44
2022/04/03 13:08:50;;;;;;;1.13;0.77;;;8.00;99.90;;;;;;5081366;27;20208;-44
2022/04/03 13:11:30;;;;;;;0.87;0.70;;;8.10;99.90;;;;;;5078720;27;20286;-44
2022/04/03 13:14:12;;;;;;;0.97;0.77;;;8.10;99.90;;;;;;5081467;28;20222;-44
2022/04/03 13:16:39;;;;;;;2.83;0.70;;;8.10;99.90;;;;;;5062272;28;20198;-45
2022/04/03 13:19:07;;;;;;;1.43;0.90;;;8.00;99.90;;;;;;5095681;27;20310;-44
2022/04/03 13:21:35;;;;;;;2.53;0.90;;;8.00;99.90;;;;;;5066393;27;20215;-44
2022/04/03 13:24:02;;;;;;;1.73;0.80;;;8.10;99.90;;;;;;5085988;28;20215;-43
2022/04/03 13:26:30;;;;;;;5.27;1.00;;;8.20;99.90;;;;;;5082707;27;20686;-44
2022/04/03 13:28:57;;;;;;;2.13;0.60;;;8.10;99.90;;;;;;5060758;27;20209;-42
2022/04/03 13:31:24;;;;;;;0.70;0.70;;;7.90;99.90;;;;;;5094310;27;20385;-44
2022/04/03 13:33:53;;;;;;;0.87;0.80;;;7.90;99.90;;;;;;5063169;27;20229;-45
2022/04/03 13:36:20;;;;;;;1.13;0.53;;;7.80;99.90;;;;;;5065362;27;20260;-45
2022/04/03 13:38:47;;;;;;;0.70;0.43;;;7.90;99.90;;;;;;5067607;27;20312;-45
2022/04/03 13:41:14;;;;;;;3.57;1.03;;;8.00;99.90;;;;;;5088371;27;20620;-44
2022/04/03 13:43:42;;;;;;;1.10;0.77;;;8.10;99.90;;;;;;5074600;27;20440;-45
2022/04/03 13:46:09;;;;;;;4.87;2.30;;;8.10;99.90;;;;;;5087182;27;20217;-44
2022/04/03 13:48:37;;;;;;;1.73;1.00;;;8.10;99.90;;;;;;5081064;27;20210;-45
2022/04/03 13:51:05;;;;;;;0.70;0.70;;;8.00;99.90;;;;;;5078332;27;20256;-44
2022/04/03 13:53:32;;;;;;;5.57;0.83;;;7.80;99.90;;;;;;5070461;27;20604;-45
2022/04/03 13:56:01;;;;;;;1.17;0.70;;;7.70;99.90;;;;;;5088168;27;20289;-44
2022/04/03 13:58:28;;;;;;;1.20;0.90;;;7.60;99.90;;;;;;5084451;28;20260;-45
2022/04/03 14:00:58;;;;;;;1.00;0.90;;;7.80;99.90;;;;;;5070741;27;20207;-44
2022/04/03 14:03:26;;;;;;;1.20;0.57;;;8.00;99.90;;;;;;5077384;27;20585;-45
2022/04/03 14:05:53;;;;;;;1.20;0.77;;;8.00;99.90;;;;;;5068372;27;22752;-45
2022/04/03 14:08:21;;;;;;;1.63;0.47;;;8.10;99.90;;;;;;5078806;27;20454;-45
2022/04/03 14:10:48;;;;;;;0.53;0.50;;;8.30;99.90;;;;;;5076303;27;20815;-45
2022/04/03 14:13:16;;;;;;;0.73;0.70;;;8.10;99.90;;;;;;5086759;27;20328;-43
2022/04/03 14:15:43;;;;;;;4.33;0.90;;;7.80;99.90;;;;;;5067384;27;20197;-44
2022/04/03 14:18:11;;;;;;;1.47;0.60;;;7.60;99.90;;;;;;5093678;27;20423;-44
2022/04/03 14:20:38;;;;;;;1.20;0.70;;;7.50;99.90;;;;;;5077260;28;20241;-45
2022/04/03 14:23:06;;;;;;;1.67;0.70;;;7.30;99.90;;;;;;5064161;28;20751;-44
2022/04/03 14:25:32;;;;;;;1.80;1.10;;;7.20;99.90;;;;;;5082382;27;20284;-45
2022/04/03 14:28:00;;;;;;;0.50;0.50;;;7.20;99.90;;;;;;5068907;27;20241;-44
2022/04/03 14:30:27;;;;;;;0.70;0.70;;;7.30;99.90;;;;;;5067420;27;20301;-48
2022/04/03 14:32:56;;;;;;;2.13;1.00;;;7.40;99.90;;;;;;5080984;28;20412;-45
2022/04/03 14:35:25;;;;;;;1.80;1.00;;;7.40;99.90;;;;;;5084268;27;20652;-45
2022/04/03 14:37:53;;;;;;;1.77;1.00;;;7.50;99.90;;;;;;5066841;28;20218;-46
2022/04/03 14:40:20;;;;;;;1.17;1.10;;;7.60;99.90;;;;;;5067219;27;20534;-44
2022/04/03 14:42:48;;;;;;;1.03;0.70;;;7.70;99.90;;;;;;5088252;28;20486;-45
2022/04/03 14:45:15;;;;;;;1.57;1.47;;;7.70;99.90;;;;;;5059886;27;20386;-44
2022/04/03 14:47:42;;;;;;;0.70;0.70;;;7.70;99.90;;;;;;5081015;28;20204;-45